METAR / TAF

METAR / TAF
Aktuelle Wetterdaten für Piloten (ohne Gewähr!)


Available data for LSZB from the past 2 hours
BERN/BELP
Metar
LSZB 190120Z AUTO 09005KT CAVOK 15/12 Q1014

01:20 UTC

Wind: 90° 5kt

Visibility:

Sky:

Temp: 15 deg C / 59 deg F

Dewpoint: 12 deg C / 53.6 deg F

Pressure: 1014 hPa

TAF
TAF LSZB 181425Z 1815/1824 17007KT 9999 FEW030 SCT060 TEMPO 1815/1817 SHRA SCT060TCU PROB40 TEMPO 1815/1817 TSRA SCT060CB BECMG 1819/1821 VRB03KT CAVOK

Available data for LSGS from the past 2 hours
SION (MIL/CIV/AU
Metar
LSGS 190120Z AUTO 10005KT CAVOK 17/11 Q1017

01:20 UTC

Wind: 100° 5kt

Visibility:

Sky:

Temp: 17 deg C / 62.6 deg F

Dewpoint: 11 deg C / 51.8 deg F

Pressure: 1017 hPa

TAF
TAF LSGS 181425Z 1815/1824 25012KT 9999 SCT100 BKN200 BECMG 1819/1821 VRB03KT CAVOK

Available data for LSZG from the past 2 hours
GRENCHEN
Metar
LSZG 190120Z AUTO 22001KT 9999 NCD 14/14 Q1014

01:20 UTC

Wind: 220° 1kt

Visibility: 9999 m

Sky:

Temp: 14 deg C / 57.2 deg F

Dewpoint: 14 deg C / 57.2 deg F

Pressure: 1014 hPa

TAF
TAF LSZG 181425Z 1815/1824 22006KT 9999 FEW050 BKN200 PROB30 TEMPO 1815/1818 FEW050TCU BECMG 1818/1821 CAVOK

Available data for LSMP from the past 2 hours
PAYERNE (MIL/AUT
Metar
LSMP 190120Z AUTO 00000KT 9999NDV NCD 15/13 Q1014 RMK

Available data for LSZA from the past 2 hours
LUGANO (PVT/AUT)
Metar
LSZA 190120Z AUTO 15004KT 110V230 CAVOK 21/13 Q1015

01:20 UTC

Wind: 150° 4kt

Visibility:

Sky:

Temp: 21 deg C / 69.8 deg F

Dewpoint: 13 deg C / 55.4 deg F

Pressure: 1015 hPa

TAF
TAF LSZA 181425Z 1815/1824 20005KT 9999 FEW060 PROB40 TEMPO 1817/1821 TSRA SCT050CB

Available data for LSZS from the past 2 hours
SAMEDAN
Metar
LSZS 190120Z AUTO VRB03KT 9999 NSC 08/07 Q1022

01:20 UTC

Wind: ° 3kt

Visibility: 9999 m

Sky:

Temp: 8 deg C / 46.4 deg F

Dewpoint: 7 deg C / 44.6 deg F

Pressure: 1022 hPa

TAF
TAF LSZS 181425Z 1815/1824 20010KT 9999 SCT045 TX22/1815Z PROB30 TEMPO 1815/1818 SHRA SCT035TCU TEMPO 1818/1824 SHRA FEW035TCU PROB30 TEMPO 1818/1824 22015G25KT 4500 TSRA FEW030CB